createdAt,value
2019-01-21T00:01:11.590Z,71.15
2019-01-21T00:06:20.665Z,81.63
2019-01-21T00:11:30.227Z,73.51
2019-01-21T00:16:39.349Z,77.44
2019-01-21T00:21:48.622Z,83.17
2019-01-21T00:26:57.822Z,125.41
2019-01-21T00:32:07.060Z,103.38
2019-01-21T00:37:16.277Z,89.92
2019-01-21T00:42:25.457Z,93.85
2019-01-21T00:47:34.533Z,91.25
2019-01-21T00:52:43.769Z,91.13
2019-01-21T00:57:52.921Z,92.27
2019-01-21T01:03:02.227Z,87.36
2019-01-21T01:08:11.282Z,89.30
2019-01-21T01:13:20.487Z,88.41
2019-01-21T01:18:29.596Z,110.22
2019-01-21T01:23:38.957Z,89.19
2019-01-21T01:28:48.025Z,88.79
2019-01-21T01:33:57.278Z,86.65
2019-01-21T01:39:06.385Z,75.73
2019-01-21T01:44:15.572Z,78.29
2019-01-21T01:49:24.693Z,82.69
2019-01-21T01:54:33.892Z,81.18
2019-01-21T01:59:42.996Z,77.98
2019-01-21T02:04:52.262Z,70.94
2019-01-21T02:10:01.357Z,73.63
2019-01-21T02:15:10.608Z,78.79
2019-01-21T02:20:19.712Z,73.88
2019-01-21T02:25:28.901Z,73.92
2019-01-21T02:30:38.002Z,80.26
2019-01-21T02:35:47.561Z,73.47
2019-01-21T02:40:56.654Z,79.11
2019-01-21T02:46:06.157Z,78.12
2019-01-21T02:51:15.248Z,75.01
2019-01-21T02:56:24.414Z,64.62
2019-01-21T03:01:34.778Z,75.17
2019-01-21T03:06:33.910Z,70.02
2019-01-21T03:11:43.112Z,74.03
2019-01-21T03:16:52.349Z,72.17
2019-01-21T03:22:01.446Z,74.46
2019-01-21T03:27:10.779Z,82.16
2019-01-21T03:32:19.851Z,79.82
2019-01-21T03:37:29.057Z,73.09
2019-01-21T03:42:37.743Z,71.09
2019-01-21T03:47:46.958Z,68.26
2019-01-21T03:52:56.061Z,71.83
2019-01-21T03:58:05.665Z,67.92
2019-01-21T04:03:13.926Z,74.62
2019-01-21T04:08:23.209Z,73.92
2019-01-21T04:13:32.284Z,76.24
2019-01-21T04:18:41.589Z,77.44
2019-01-21T04:23:49.244Z,75.87
2019-01-21T04:28:58.520Z,66.95
2019-01-21T04:34:07.705Z,67.17
2019-01-21T04:39:17.259Z,71.50
2019-01-21T04:44:26.476Z,69.34
2019-01-21T04:49:36.054Z,70.52
2019-01-21T04:54:45.117Z,72.24
2019-01-21T04:59:54.336Z,65.77
2019-01-21T05:05:03.429Z,70.00
2019-01-21T05:10:12.713Z,68.97
2019-01-21T05:15:21.857Z,64.07
2019-01-21T05:20:31.090Z,65.59
2019-01-21T05:25:40.229Z,67.75
2019-01-21T05:30:49.730Z,64.91
2019-01-21T05:35:58.860Z,61.82
2019-01-21T05:41:08.103Z,66.50
2019-01-21T05:46:17.176Z,61.77
2019-01-21T05:51:26.429Z,60.40
2019-01-21T05:56:35.592Z,60.33
2019-01-21T06:01:44.853Z,63.56
2019-01-21T06:06:54.061Z,60.49
2019-01-21T06:12:03.324Z,61.85
2019-01-21T06:17:12.361Z,59.94
2019-01-21T06:22:21.669Z,60.30
2019-01-21T06:27:30.768Z,56.83
2019-01-21T06:32:40.043Z,62.05
2019-01-21T06:37:49.182Z,59.17
2019-01-21T06:42:58.441Z,58.72
2019-01-21T06:48:07.630Z,60.48
2019-01-21T06:53:16.781Z,65.26
2019-01-21T06:58:25.945Z,63.39
2019-01-21T07:03:35.166Z,63.31
2019-01-21T07:08:44.244Z,64.34
2019-01-21T07:13:53.508Z,69.26
2019-01-21T07:19:03.000Z,67.98
2019-01-21T07:24:12.201Z,66.94
2019-01-21T07:29:21.349Z,67.81
2019-01-21T07:34:30.957Z,69.75
2019-01-21T07:39:40.429Z,60.19
2019-01-21T07:44:49.668Z,69.05
2019-01-21T07:49:58.781Z,66.89
2019-01-21T07:55:07.942Z,69.27
2019-01-21T08:00:17.145Z,71.88
2019-01-21T08:05:26.520Z,62.86
2019-01-21T08:10:35.678Z,71.34
2019-01-21T08:15:45.226Z,61.98
2019-01-21T08:20:54.341Z,75.72
2019-01-21T08:26:03.657Z,66.59
2019-01-21T08:31:12.860Z,68.46
2019-01-21T08:36:22.104Z,67.13
2019-01-21T08:41:31.197Z,71.74
2019-01-21T08:46:40.409Z,69.78
2019-01-21T08:51:49.511Z,65.27
2019-01-21T08:56:58.765Z,66.54
2019-01-21T09:02:07.845Z,70.27
2019-01-21T09:07:17.130Z,62.91
2019-01-21T09:12:26.237Z,63.76
2019-01-21T09:17:35.882Z,61.95
2019-01-21T09:22:45.340Z,62.39
2019-01-21T09:27:54.655Z,64.07
2019-01-21T09:33:03.794Z,63.51
2019-01-21T09:38:12.991Z,61.06
2019-01-21T09:43:22.125Z,58.76
2019-01-21T09:48:31.344Z,58.93
2019-01-21T09:53:40.409Z,60.15
2019-01-21T09:58:49.925Z,62.65
2019-01-21T10:03:59.080Z,55.12
2019-01-21T10:09:08.274Z,56.32
2019-01-21T10:14:17.374Z,53.55
2019-01-21T10:19:26.625Z,55.00
2019-01-21T10:24:35.803Z,56.12
2019-01-21T10:29:44.981Z,56.29
2019-01-21T10:34:54.093Z,53.88
2019-01-21T10:40:03.304Z,50.19
2019-01-21T10:45:12.461Z,51.26
2019-01-21T10:50:21.669Z,56.64
2019-01-21T10:55:30.780Z,55.81
2019-01-21T11:00:39.954Z,56.87
2019-01-21T11:05:49.024Z,53.60
2019-01-21T11:10:58.365Z,51.97
2019-01-21T11:16:07.445Z,53.80
2019-01-21T11:21:16.589Z,54.74
2019-01-21T11:26:25.664Z,54.62
2019-01-21T11:31:34.841Z,48.19
2019-01-21T11:36:43.941Z,47.17
2019-01-21T11:41:53.071Z,49.41
2019-01-21T11:47:02.159Z,47.87
2019-01-21T11:52:11.324Z,47.25
2019-01-21T11:57:20.417Z,43.85
2019-01-21T12:02:29.597Z,48.79
2019-01-21T12:07:38.749Z,48.09
2019-01-21T12:12:47.897Z,45.66
2019-01-21T12:17:57.000Z,42.45
2019-01-21T12:23:06.235Z,44.31
2019-01-21T12:28:15.501Z,41.88
2019-01-21T12:33:24.709Z,43.12
2019-01-21T12:38:33.822Z,43.92
2019-01-21T12:43:43.021Z,40.85
2019-01-21T12:48:52.090Z,40.34
2019-01-21T12:54:01.305Z,40.97
2019-01-21T12:59:15.986Z,38.61
2019-01-21T13:04:19.088Z,39.57
2019-01-21T13:09:28.217Z,38.92
2019-01-21T13:14:37.382Z,42.82
2019-01-21T13:19:46.486Z,39.98
2019-01-21T13:24:55.605Z,40.79
2019-01-21T13:30:04.770Z,41.74
2019-01-21T13:35:13.893Z,41.71
2019-01-21T13:40:22.949Z,42.80
2019-01-21T13:45:32.145Z,42.68
2019-01-21T13:50:41.284Z,44.87
2019-01-21T13:55:50.457Z,39.05
2019-01-21T14:00:59.525Z,42.74
2019-01-21T14:06:08.662Z,40.18
2019-01-21T14:11:17.723Z,41.58
2019-01-21T14:16:26.944Z,41.63
2019-01-21T14:21:36.054Z,41.69
2019-01-21T14:26:45.204Z,41.44
2019-01-21T14:31:54.312Z,42.91
2019-01-21T14:37:03.489Z,46.85
2019-01-21T14:42:12.553Z,39.12
2019-01-21T14:47:21.753Z,40.44
2019-01-21T14:52:30.885Z,39.62
2019-01-21T14:57:40.084Z,40.74
2019-01-21T15:02:49.217Z,40.61
2019-01-21T15:07:58.418Z,40.20
2019-01-21T15:13:07.476Z,43.10
2019-01-21T15:18:16.616Z,44.24
2019-01-21T15:23:25.775Z,40.70
2019-01-21T15:28:34.925Z,43.22
2019-01-21T15:33:44.058Z,41.93
2019-01-21T15:38:53.227Z,46.19
2019-01-21T15:44:02.372Z,43.07
2019-01-21T15:49:11.494Z,40.35
2019-01-21T15:54:20.554Z,41.29
2019-01-21T15:59:29.723Z,41.42
2019-01-21T16:04:38.825Z,42.78
2019-01-21T16:09:47.988Z,50.89
2019-01-21T16:14:57.075Z,48.53
2019-01-21T16:20:06.261Z,41.35
2019-01-21T16:25:15.379Z,39.79
2019-01-21T16:30:24.621Z,40.22
2019-01-21T16:35:33.806Z,38.52
2019-01-21T16:40:41.497Z,41.26
2019-01-21T16:45:50.607Z,43.57
2019-01-21T16:50:58.370Z,38.91
2019-01-21T16:56:07.496Z,38.48
2019-01-21T17:01:16.688Z,40.97
2019-01-21T17:06:25.809Z,40.12
2019-01-21T17:11:34.957Z,44.52
2019-01-21T17:16:44.064Z,38.66
2019-01-21T17:21:53.250Z,43.00
2019-01-21T17:27:02.313Z,39.25
2019-01-21T17:32:11.473Z,44.24
2019-01-21T17:37:20.560Z,45.67
2019-01-21T17:42:29.725Z,45.18
2019-01-21T17:47:38.849Z,42.42
2019-01-21T17:52:47.996Z,46.68
2019-01-21T17:57:57.107Z,49.89
2019-01-21T18:03:06.243Z,43.88
2019-01-21T18:08:15.338Z,44.10
2019-01-21T18:13:24.553Z,43.12
2019-01-21T18:18:33.677Z,42.45
2019-01-21T18:23:42.824Z,43.24
2019-01-21T18:28:51.935Z,44.88
2019-01-21T18:34:01.096Z,43.98
2019-01-21T18:39:10.173Z,44.92
2019-01-21T18:44:19.349Z,44.39
2019-01-21T18:49:28.417Z,46.12
2019-01-21T18:54:37.536Z,48.85
2019-01-21T18:59:46.605Z,41.46
2019-01-21T19:04:55.823Z,48.77
2019-01-21T19:10:04.933Z,46.98
2019-01-21T19:15:14.209Z,44.02
2019-01-21T19:20:23.685Z,44.52
2019-01-21T19:25:32.901Z,46.43
2019-01-21T19:30:42.062Z,42.73
2019-01-21T19:35:51.231Z,44.28
2019-01-21T19:41:00.397Z,44.38
2019-01-21T19:46:09.601Z,44.48
2019-01-21T19:51:18.723Z,47.63
2019-01-21T19:56:28.019Z,47.32
2019-01-21T20:01:37.923Z,46.23
2019-01-21T20:06:47.133Z,44.50
2019-01-21T20:11:56.289Z,47.89
2019-01-21T20:17:04.081Z,45.67
2019-01-21T20:22:13.203Z,44.37
2019-01-21T20:27:22.820Z,43.46
2019-01-21T20:32:31.917Z,43.26
2019-01-21T20:37:41.529Z,41.91
2019-01-21T20:42:50.629Z,44.77
2019-01-21T20:48:00.321Z,44.12
2019-01-21T20:53:09.443Z,42.92
2019-01-21T20:58:18.693Z,41.90
2019-01-21T21:03:27.757Z,44.07
2019-01-21T21:08:37.029Z,43.75
2019-01-21T21:13:46.173Z,47.15
2019-01-21T21:18:55.713Z,48.85
2019-01-21T21:24:03.993Z,49.99
2019-01-21T21:29:13.830Z,50.31
2019-01-21T21:34:22.929Z,55.22
2019-01-21T21:39:32.240Z,55.25
2019-01-21T21:44:41.378Z,50.54
2019-01-21T21:49:50.937Z,52.18
2019-01-21T21:55:00.037Z,56.01
2019-01-21T22:00:09.342Z,54.72
2019-01-21T22:05:18.629Z,61.92
2019-01-21T22:10:27.789Z,58.17
2019-01-21T22:15:36.906Z,68.19
2019-01-21T22:20:46.111Z,65.06
2019-01-21T22:25:55.297Z,68.98
2019-01-21T22:31:04.467Z,75.16
2019-01-21T22:36:13.559Z,80.70
2019-01-21T22:41:22.725Z,79.47
2019-01-21T22:46:31.866Z,81.67
2019-01-21T22:51:41.154Z,85.02
2019-01-21T22:56:50.214Z,83.78
2019-01-21T23:01:59.461Z,78.91
2019-01-21T23:07:08.564Z,74.20
2019-01-21T23:12:18.233Z,80.95
2019-01-21T23:17:27.336Z,79.11
2019-01-21T23:22:36.529Z,70.66
2019-01-21T23:27:45.644Z,74.56
2019-01-21T23:32:54.853Z,71.80
2019-01-21T23:38:03.961Z,79.17
2019-01-21T23:43:13.199Z,78.35
2019-01-21T23:48:22.358Z,77.19
2019-01-21T23:53:31.643Z,74.66
2019-01-21T23:58:40.696Z,80.10
